Reno Tahoe International Airport
KRNO : now visible

Airfield :











YOU CAN JOIN US ON...

 
LOGIN :

Register | Disclaimer

   EN    FR    IT 

 









Legend :    VFR   Marginal VFR   IFR   Intensive IFR   Very Intensive IFR
Visi :
Ceiling :
>= 8 km
>= 3000ft
5 to 8 km
1000 to 3000 ft
1500m to 5 km
500 to 1000 ft
800 to 1500m
200 to 500 ft
< 800m
< 200 ft
Symbols :   Thunderstorms  Fog  Heavy snow  Heavy precipitations  Wind > 20 kt






- Airport Elevation : 4415 ft
- IATA code : RNO


KRNO - Reno Tahoe International

CURRENT METAR :
  • 112055Z 02010G19KT 10SM BKN110 BKN190 BKN250 31/02 A3000 RMK AO2 PK WND 26030/2018 WSHFT 2014 RAB00E28 TSE24 SLP092 CB DSNT N AND E THRU SE MOV N P0000 60000 T03060017 58015 $

EXPIRED METARs :
  • 112027Z 02017G30KT 10SM -RA FEW085 BKN110 BKN190 29/03 A3001 RMK AO2 PK WND 26030/2018 WSHFT 1954 LTG DSNT N AND SE RAB00 TSE24 TS MOVD N CB DSNT N AND E THRU SE MOV N P0000 T02890033 $
  • 112009Z 20010G24KT 160V230 10SM -TSRA BKN110CB BKN190 28/07 A3002 RMK AO2 WSHFT 1954 LTG DSNT SE RAB00 OCNL LTGIC OHD TS OHD MOV NE CB DSNT N AND SE P0000 T02780072
  • 111955Z 27010KT 10SM TS BKN110CB BKN190 BKN250 31/01 A3002 RMK AO2 LTG DSNT NW TSB29 SLP099 FRQ LTGIC OHD-SW TS OHD-SW MOV NE CB DSNT SE AND NW SH VC SW T03110011
  • 111931Z 24004KT 10SM TS BKN110CB BKN190 BKN250 31/03 A3002 RMK AO2 TSB29 OCNL LTGIC SW TS SW STNRY VIRGA CB DSNT SE AND NW T03110033
  • 111855Z 07003KT 10SM SCT110TCU SCT190 32/04 A3003 RMK AO2 SLP102 TCU SW AND W T03220039

TAF KRNO
Valid from the 11 at 18:00 until the 12 at 18:00 UTC


111732Z 1118/1218 17006KT P6SM FEW120 SCT200
FM112000 20008KT P6SM VCTS SCT100CB SCT200
TEMPO 1121/1124 VRB18G30KT P6SM -TSRA SCT070 BKN100CB
FM120000 27012G22KT P6SM FEW100 SCT140 SCT200
FM120500 30006KT P6SM SCT140
KZOA FIR / North America



MET'MAP, your aeronautical weather chart ! - Copyright ORBIFLY December 2007 - Disclaimer

ORBIFLY MET'MAP TEAM :

Programming & Development : Alexandra Zaïnal
Concept & original design : Baudouin d'Aumeries
Assistance for programming : Marc-Olivier Méhu
Technical & hardware support : Manuel Goepfert

Contact : metmap@orbifly.com




SOURCES & CREDITS :

   NOAA       Earth
Advisory